sensor_id;sensor_type;location;lat;lon;timestamp;temperature;humidity
78345;DHT22;67620;51.134;6.548;2023-07-22T00:02:21;23.90;53.60
78345;DHT22;67620;51.134;6.548;2023-07-22T00:04:48;23.90;53.60
78345;DHT22;67620;51.134;6.548;2023-07-22T00:07:13;23.90;53.60
78345;DHT22;67620;51.134;6.548;2023-07-22T00:09:39;23.90;53.70
78345;DHT22;67620;51.134;6.548;2023-07-22T00:12:07;23.90;53.60
78345;DHT22;67620;51.134;6.548;2023-07-22T00:14:32;23.90;53.60
78345;DHT22;67620;51.134;6.548;2023-07-22T00:16:58;23.90;53.60
78345;DHT22;67620;51.134;6.548;2023-07-22T00:19:23;23.90;53.60
78345;DHT22;67620;51.134;6.548;2023-07-22T00:21:49;23.90;53.60
78345;DHT22;67620;51.134;6.548;2023-07-22T00:24:14;23.90;53.60
78345;DHT22;67620;51.134;6.548;2023-07-22T00:26:41;23.90;53.70
78345;DHT22;67620;51.134;6.548;2023-07-22T00:29:07;23.90;53.60
78345;DHT22;67620;51.134;6.548;2023-07-22T00:31:33;23.90;53.70
78345;DHT22;67620;51.134;6.548;2023-07-22T00:33:59;23.90;53.70
78345;DHT22;67620;51.134;6.548;2023-07-22T00:36:25;23.90;53.60
78345;DHT22;67620;51.134;6.548;2023-07-22T00:38:50;23.90;53.70
78345;DHT22;67620;51.134;6.548;2023-07-22T00:41:18;23.90;53.70
78345;DHT22;67620;51.134;6.548;2023-07-22T00:43:43;23.90;53.70
78345;DHT22;67620;51.134;6.548;2023-07-22T00:46:09;23.90;53.70
78345;DHT22;67620;51.134;6.548;2023-07-22T00:48:34;23.90;53.70
78345;DHT22;67620;51.134;6.548;2023-07-22T00:51:00;23.90;53.70
78345;DHT22;67620;51.134;6.548;2023-07-22T00:53:26;23.90;53.70
78345;DHT22;67620;51.134;6.548;2023-07-22T00:55:52;23.90;53.70
78345;DHT22;67620;51.134;6.548;2023-07-22T00:58:18;23.90;53.60
78345;DHT22;67620;51.134;6.548;2023-07-22T01:00:45;23.80;53.70
78345;DHT22;67620;51.134;6.548;2023-07-22T01:03:11;23.80;53.70
78345;DHT22;67620;51.134;6.548;2023-07-22T01:05:37;23.80;53.70
78345;DHT22;67620;51.134;6.548;2023-07-22T01:08:03;23.80;53.60
78345;DHT22;67620;51.134;6.548;2023-07-22T01:10:29;23.80;53.70
78345;DHT22;67620;51.134;6.548;2023-07-22T01:12:55;23.80;53.70
78345;DHT22;67620;51.134;6.548;2023-07-22T01:15:21;23.80;53.70
78345;DHT22;67620;51.134;6.548;2023-07-22T01:17:47;23.80;53.70
78345;DHT22;67620;51.134;6.548;2023-07-22T01:20:13;23.80;53.70
78345;DHT22;67620;51.134;6.548;2023-07-22T01:22:39;23.80;53.70
78345;DHT22;67620;51.134;6.548;2023-07-22T01:25:05;23.80;53.70
78345;DHT22;67620;51.134;6.548;2023-07-22T01:27:32;23.80;53.70
78345;DHT22;67620;51.134;6.548;2023-07-22T01:29:58;23.80;53.70
78345;DHT22;67620;51.134;6.548;2023-07-22T01:32:23;23.80;53.70
78345;DHT22;67620;51.134;6.548;2023-07-22T01:34:48;23.80;53.70
78345;DHT22;67620;51.134;6.548;2023-07-22T01:37:14;23.80;53.70
78345;DHT22;67620;51.134;6.548;2023-07-22T01:39:39;23.80;53.70
78345;DHT22;67620;51.134;6.548;2023-07-22T01:42:05;23.80;53.70
78345;DHT22;67620;51.134;6.548;2023-07-22T01:44:30;23.80;53.70
78345;DHT22;67620;51.134;6.548;2023-07-22T01:46:56;23.80;53.70
78345;DHT22;67620;51.134;6.548;2023-07-22T01:49:22;23.80;53.70
78345;DHT22;67620;51.134;6.548;2023-07-22T01:51:49;23.80;53.70
78345;DHT22;67620;51.134;6.548;2023-07-22T01:54:15;23.80;53.70
78345;DHT22;67620;51.134;6.548;2023-07-22T01:56:40;23.80;53.70
78345;DHT22;67620;51.134;6.548;2023-07-22T01:59:06;23.80;53.70
78345;DHT22;67620;51.134;6.548;2023-07-22T02:01:32;23.80;53.70
78345;DHT22;67620;51.134;6.548;2023-07-22T02:03:58;23.80;53.70
78345;DHT22;67620;51.134;6.548;2023-07-22T02:06:23;23.80;53.70
78345;DHT22;67620;51.134;6.548;2023-07-22T02:08:49;23.80;53.70
78345;DHT22;67620;51.134;6.548;2023-07-22T02:11:16;23.80;53.70
78345;DHT22;67620;51.134;6.548;2023-07-22T02:13:41;23.80;53.70
78345;DHT22;67620;51.134;6.548;2023-07-22T02:16:07;23.80;53.70
78345;DHT22;67620;51.134;6.548;2023-07-22T02:18:36;23.80;53.70
78345;DHT22;67620;51.134;6.548;2023-07-22T02:21:02;23.80;53.70
78345;DHT22;67620;51.134;6.548;2023-07-22T02:23:27;23.80;53.70
78345;DHT22;67620;51.134;6.548;2023-07-22T02:25:53;23.80;53.70
78345;DHT22;67620;51.134;6.548;2023-07-22T02:28:20;23.80;53.70
78345;DHT22;67620;51.134;6.548;2023-07-22T02:30:50;23.80;53.70
78345;DHT22;67620;51.134;6.548;2023-07-22T02:33:18;23.80;53.70
78345;DHT22;67620;51.134;6.548;2023-07-22T02:35:44;23.80;53.70
78345;DHT22;67620;51.134;6.548;2023-07-22T02:38:10;23.80;53.70
78345;DHT22;67620;51.134;6.548;2023-07-22T02:40:38;23.80;53.70
78345;DHT22;67620;51.134;6.548;2023-07-22T02:43:04;23.80;53.70
78345;DHT22;67620;51.134;6.548;2023-07-22T02:45:31;23.80;53.70
78345;DHT22;67620;51.134;6.548;2023-07-22T02:47:56;23.80;53.80
78345;DHT22;67620;51.134;6.548;2023-07-22T02:50:22;23.80;53.70
78345;DHT22;67620;51.134;6.548;2023-07-22T02:52:47;23.80;53.80
78345;DHT22;67620;51.134;6.548;2023-07-22T02:55:16;23.80;53.70
78345;DHT22;67620;51.134;6.548;2023-07-22T02:57:46;23.80;53.70
78345;DHT22;67620;51.134;6.548;2023-07-22T03:00:13;23.80;53.70
78345;DHT22;67620;51.134;6.548;2023-07-22T03:02:42;23.80;53.70
78345;DHT22;67620;51.134;6.548;2023-07-22T03:05:08;23.80;53.70
78345;DHT22;67620;51.134;6.548;2023-07-22T03:07:34;23.80;53.70
78345;DHT22;67620;51.134;6.548;2023-07-22T03:10:00;23.70;53.70
78345;DHT22;67620;51.134;6.548;2023-07-22T03:12:26;23.80;53.70
78345;DHT22;67620;51.134;6.548;2023-07-22T03:14:51;23.70;53.70
78345;DHT22;67620;51.134;6.548;2023-07-22T03:17:18;23.80;53.70
78345;DHT22;67620;51.134;6.548;2023-07-22T03:19:43;23.70;53.70
78345;DHT22;67620;51.134;6.548;2023-07-22T03:22:09;23.80;53.70
78345;DHT22;67620;51.134;6.548;2023-07-22T03:24:35;23.70;53.70
78345;DHT22;67620;51.134;6.548;2023-07-22T03:27:00;23.70;53.70
78345;DHT22;67620;51.134;6.548;2023-07-22T03:29:26;23.70;53.70
78345;DHT22;67620;51.134;6.548;2023-07-22T03:31:53;23.70;53.70
78345;DHT22;67620;51.134;6.548;2023-07-22T03:34:18;23.70;53.70
78345;DHT22;67620;51.134;6.548;2023-07-22T03:36:44;23.70;53.70
78345;DHT22;67620;51.134;6.548;2023-07-22T03:39:10;23.70;53.70
78345;DHT22;67620;51.134;6.548;2023-07-22T03:41:35;23.70;53.70
78345;DHT22;67620;51.134;6.548;2023-07-22T03:44:01;23.70;53.70
78345;DHT22;67620;51.134;6.548;2023-07-22T03:46:26;23.70;53.70
78345;DHT22;67620;51.134;6.548;2023-07-22T03:48:51;23.70;53.70
78345;DHT22;67620;51.134;6.548;2023-07-22T03:51:17;23.70;53.80
78345;DHT22;67620;51.134;6.548;2023-07-22T03:53:42;23.70;53.80
78345;DHT22;67620;51.134;6.548;2023-07-22T03:56:08;23.70;53.80
78345;DHT22;67620;51.134;6.548;2023-07-22T03:58:33;23.70;53.70
78345;DHT22;67620;51.134;6.548;2023-07-22T04:00:59;23.70;53.80
78345;DHT22;67620;51.134;6.548;2023-07-22T04:03:25;23.70;53.70
78345;DHT22;67620;51.134;6.548;2023-07-22T04:05:54;23.70;53.70
78345;DHT22;67620;51.134;6.548;2023-07-22T04:08:20;23.70;53.80
78345;DHT22;67620;51.134;6.548;2023-07-22T04:10:53;23.70;53.70
78345;DHT22;67620;51.134;6.548;2023-07-22T04:13:19;23.70;53.70
78345;DHT22;67620;51.134;6.548;2023-07-22T04:15:44;23.70;53.80
78345;DHT22;67620;51.134;6.548;2023-07-22T04:18:10;23.70;53.70
78345;DHT22;67620;51.134;6.548;2023-07-22T04:20:35;23.70;53.70
78345;DHT22;67620;51.134;6.548;2023-07-22T04:23:01;23.70;53.80
78345;DHT22;67620;51.134;6.548;2023-07-22T04:25:26;23.70;53.70
78345;DHT22;67620;51.134;6.548;2023-07-22T04:27:52;23.70;53.70
78345;DHT22;67620;51.134;6.548;2023-07-22T04:30:17;23.70;53.70
78345;DHT22;67620;51.134;6.548;2023-07-22T04:32:50;23.70;53.80
78345;DHT22;67620;51.134;6.548;2023-07-22T04:35:16;23.70;53.80
78345;DHT22;67620;51.134;6.548;2023-07-22T04:37:43;23.70;53.70
78345;DHT22;67620;51.134;6.548;2023-07-22T04:40:11;23.70;53.80
78345;DHT22;67620;51.134;6.548;2023-07-22T04:42:39;23.70;53.80
78345;DHT22;67620;51.134;6.548;2023-07-22T04:45:05;23.70;53.70
78345;DHT22;67620;51.134;6.548;2023-07-22T04:47:31;23.70;53.70
78345;DHT22;67620;51.134;6.548;2023-07-22T04:49:57;23.70;53.70
78345;DHT22;67620;51.134;6.548;2023-07-22T04:52:22;23.70;53.70
78345;DHT22;67620;51.134;6.548;2023-07-22T04:54:48;23.70;53.70
78345;DHT22;67620;51.134;6.548;2023-07-22T04:57:13;23.70;53.70
78345;DHT22;67620;51.134;6.548;2023-07-22T04:59:39;23.70;53.80
78345;DHT22;67620;51.134;6.548;2023-07-22T05:02:04;23.70;53.70
78345;DHT22;67620;51.134;6.548;2023-07-22T05:04:30;23.70;53.70
78345;DHT22;67620;51.134;6.548;2023-07-22T05:06:55;23.70;53.80
78345;DHT22;67620;51.134;6.548;2023-07-22T05:09:21;23.70;53.70
78345;DHT22;67620;51.134;6.548;2023-07-22T05:11:46;23.70;53.80
78345;DHT22;67620;51.134;6.548;2023-07-22T05:14:12;23.70;53.80
78345;DHT22;67620;51.134;6.548;2023-07-22T05:16:37;23.70;53.80
78345;DHT22;67620;51.134;6.548;2023-07-22T05:19:03;23.60;53.80
78345;DHT22;67620;51.134;6.548;2023-07-22T05:21:30;23.70;53.80
78345;DHT22;67620;51.134;6.548;2023-07-22T05:23:55;23.70;53.80
78345;DHT22;67620;51.134;6.548;2023-07-22T05:26:21;23.70;53.70
78345;DHT22;67620;51.134;6.548;2023-07-22T05:28:46;23.70;53.80
78345;DHT22;67620;51.134;6.548;2023-07-22T05:31:12;23.70;53.80
78345;DHT22;67620;51.134;6.548;2023-07-22T05:33:37;23.70;53.80
78345;DHT22;67620;51.134;6.548;2023-07-22T05:36:03;23.70;53.80
78345;DHT22;67620;51.134;6.548;2023-07-22T05:38:29;23.70;53.80
78345;DHT22;67620;51.134;6.548;2023-07-22T05:40:56;23.70;53.80
78345;DHT22;67620;51.134;6.548;2023-07-22T05:43:22;23.60;53.80
78345;DHT22;67620;51.134;6.548;2023-07-22T05:45:47;23.60;53.80
78345;DHT22;67620;51.134;6.548;2023-07-22T05:48:13;23.70;53.80
78345;DHT22;67620;51.134;6.548;2023-07-22T05:50:38;23.60;53.70
78345;DHT22;67620;51.134;6.548;2023-07-22T05:53:04;23.60;53.80
78345;DHT22;67620;51.134;6.548;2023-07-22T05:55:29;23.60;53.80
78345;DHT22;67620;51.134;6.548;2023-07-22T05:57:55;23.60;53.80
78345;DHT22;67620;51.134;6.548;2023-07-22T06:00:20;23.60;53.80
78345;DHT22;67620;51.134;6.548;2023-07-22T06:02:46;23.60;53.80
78345;DHT22;67620;51.134;6.548;2023-07-22T06:05:11;23.60;53.80
78345;DHT22;67620;51.134;6.548;2023-07-22T06:07:37;23.60;53.80
78345;DHT22;67620;51.134;6.548;2023-07-22T06:10:03;23.60;53.80
78345;DHT22;67620;51.134;6.548;2023-07-22T06:12:28;23.60;53.80
78345;DHT22;67620;51.134;6.548;2023-07-22T06:14:54;23.60;53.80
78345;DHT22;67620;51.134;6.548;2023-07-22T06:17:19;23.60;53.80
78345;DHT22;67620;51.134;6.548;2023-07-22T06:19:46;23.60;53.70
78345;DHT22;67620;51.134;6.548;2023-07-22T06:22:11;23.60;53.80
78345;DHT22;67620;51.134;6.548;2023-07-22T06:24:37;23.60;53.80
78345;DHT22;67620;51.134;6.548;2023-07-22T06:27:02;23.60;53.80
78345;DHT22;67620;51.134;6.548;2023-07-22T06:29:28;23.60;53.80
78345;DHT22;67620;51.134;6.548;2023-07-22T06:31:53;23.60;53.80
78345;DHT22;67620;51.134;6.548;2023-07-22T06:34:19;23.60;53.70
78345;DHT22;67620;51.134;6.548;2023-07-22T06:36:44;23.60;53.80
78345;DHT22;67620;51.134;6.548;2023-07-22T06:39:10;23.60;53.80
78345;DHT22;67620;51.134;6.548;2023-07-22T06:41:35;23.60;53.80
78345;DHT22;67620;51.134;6.548;2023-07-22T06:44:01;23.60;53.80
78345;DHT22;67620;51.134;6.548;2023-07-22T06:46:26;23.60;53.80
78345;DHT22;67620;51.134;6.548;2023-07-22T06:48:52;23.60;53.80
78345;DHT22;67620;51.134;6.548;2023-07-22T06:51:17;23.60;53.80
78345;DHT22;67620;51.134;6.548;2023-07-22T06:53:43;23.60;53.80
78345;DHT22;67620;51.134;6.548;2023-07-22T06:56:08;23.60;53.90
78345;DHT22;67620;51.134;6.548;2023-07-22T06:58:34;23.60;53.80
78345;DHT22;67620;51.134;6.548;2023-07-22T07:00:59;23.60;53.80
78345;DHT22;67620;51.134;6.548;2023-07-22T07:03:24;23.60;53.80
78345;DHT22;67620;51.134;6.548;2023-07-22T07:05:56;23.60;53.80
78345;DHT22;67620;51.134;6.548;2023-07-22T07:08:23;23.60;53.80
78345;DHT22;67620;51.134;6.548;2023-07-22T07:10:49;23.60;53.80
78345;DHT22;67620;51.134;6.548;2023-07-22T07:13:14;23.60;53.80
78345;DHT22;67620;51.134;6.548;2023-07-22T07:15:40;23.60;53.80
78345;DHT22;67620;51.134;6.548;2023-07-22T07:18:05;23.60;53.80
78345;DHT22;67620;51.134;6.548;2023-07-22T07:20:31;23.60;53.80
78345;DHT22;67620;51.134;6.548;2023-07-22T07:22:56;23.60;53.80
78345;DHT22;67620;51.134;6.548;2023-07-22T07:25:22;23.60;53.80
78345;DHT22;67620;51.134;6.548;2023-07-22T07:27:48;23.60;53.80
78345;DHT22;67620;51.134;6.548;2023-07-22T07:30:13;23.60;53.40
78345;DHT22;67620;51.134;6.548;2023-07-22T07:32:39;23.60;52.60
78345;DHT22;67620;51.134;6.548;2023-07-22T07:35:05;23.50;52.50
78345;DHT22;67620;51.134;6.548;2023-07-22T07:37:31;23.60;52.30
78345;DHT22;67620;51.134;6.548;2023-07-22T07:39:57;23.60;52.00
78345;DHT22;67620;51.134;6.548;2023-07-22T07:42:26;23.60;52.30
78345;DHT22;67620;51.134;6.548;2023-07-22T07:44:51;23.60;52.40
78345;DHT22;67620;51.134;6.548;2023-07-22T07:47:17;23.60;52.60
78345;DHT22;67620;51.134;6.548;2023-07-22T07:49:42;23.60;52.60
78345;DHT22;67620;51.134;6.548;2023-07-22T07:52:08;23.60;52.70
78345;DHT22;67620;51.134;6.548;2023-07-22T07:54:33;23.60;52.80
78345;DHT22;67620;51.134;6.548;2023-07-22T07:56:58;23.50;52.90
78345;DHT22;67620;51.134;6.548;2023-07-22T07:59:24;23.60;52.90
78345;DHT22;67620;51.134;6.548;2023-07-22T08:01:49;23.50;53.00
78345;DHT22;67620;51.134;6.548;2023-07-22T08:04:15;23.50;53.10
78345;DHT22;67620;51.134;6.548;2023-07-22T08:06:42;23.60;53.10
78345;DHT22;67620;51.134;6.548;2023-07-22T08:09:07;23.50;53.20
78345;DHT22;67620;51.134;6.548;2023-07-22T08:11:36;23.50;53.10
78345;DHT22;67620;51.134;6.548;2023-07-22T08:14:01;23.50;53.20
78345;DHT22;67620;51.134;6.548;2023-07-22T08:16:27;23.50;53.20
78345;DHT22;67620;51.134;6.548;2023-07-22T08:18:53;23.50;53.20
78345;DHT22;67620;51.134;6.548;2023-07-22T08:21:18;23.50;53.30
78345;DHT22;67620;51.134;6.548;2023-07-22T08:23:45;23.50;53.30
78345;DHT22;67620;51.134;6.548;2023-07-22T08:26:12;23.50;53.30
78345;DHT22;67620;51.134;6.548;2023-07-22T08:28:37;23.50;53.30
78345;DHT22;67620;51.134;6.548;2023-07-22T08:31:03;23.50;53.30
78345;DHT22;67620;51.134;6.548;2023-07-22T08:33:28;23.50;53.40
78345;DHT22;67620;51.134;6.548;2023-07-22T08:35:54;23.50;53.40
78345;DHT22;67620;51.134;6.548;2023-07-22T08:38:20;23.50;53.40
78345;DHT22;67620;51.134;6.548;2023-07-22T08:40:48;23.50;53.40
78345;DHT22;67620;51.134;6.548;2023-07-22T08:43:13;23.50;53.40
78345;DHT22;67620;51.134;6.548;2023-07-22T08:45:39;23.50;53.40
78345;DHT22;67620;51.134;6.548;2023-07-22T08:48:07;23.50;53.50
78345;DHT22;67620;51.134;6.548;2023-07-22T08:50:46;23.50;53.40
78345;DHT22;67620;51.134;6.548;2023-07-22T08:53:13;23.50;53.50
78345;DHT22;67620;51.134;6.548;2023-07-22T08:55:38;23.50;53.50
78345;DHT22;67620;51.134;6.548;2023-07-22T08:58:10;23.50;53.50
78345;DHT22;67620;51.134;6.548;2023-07-22T09:00:36;23.50;53.60
78345;DHT22;67620;51.134;6.548;2023-07-22T09:03:02;23.50;53.50
78345;DHT22;67620;51.134;6.548;2023-07-22T09:05:28;23.50;53.50
78345;DHT22;67620;51.134;6.548;2023-07-22T09:07:54;23.50;53.50
78345;DHT22;67620;51.134;6.548;2023-07-22T09:10:20;23.50;53.50
78345;DHT22;67620;51.134;6.548;2023-07-22T09:12:46;23.50;53.50
78345;DHT22;67620;51.134;6.548;2023-07-22T09:15:12;23.50;53.50
78345;DHT22;67620;51.134;6.548;2023-07-22T09:17:38;23.50;53.60
78345;DHT22;67620;51.134;6.548;2023-07-22T09:20:04;23.50;53.50
78345;DHT22;67620;51.134;6.548;2023-07-22T09:22:31;23.50;53.60
78345;DHT22;67620;51.134;6.548;2023-07-22T09:27:41;23.50;53.60
78345;DHT22;67620;51.134;6.548;2023-07-22T09:30:23;23.50;53.60
78345;DHT22;67620;51.134;6.548;2023-07-22T09:32:49;23.50;53.60
78345;DHT22;67620;51.134;6.548;2023-07-22T09:35:14;23.50;53.60
78345;DHT22;67620;51.134;6.548;2023-07-22T09:37:40;23.50;53.50
78345;DHT22;67620;51.134;6.548;2023-07-22T09:42:46;23.50;53.60
78345;DHT22;67620;51.134;6.548;2023-07-22T09:45:11;23.60;53.50
78345;DHT22;67620;51.134;6.548;2023-07-22T09:47:40;23.60;53.60
78345;DHT22;67620;51.134;6.548;2023-07-22T09:50:06;23.60;53.60
78345;DHT22;67620;51.134;6.548;2023-07-22T09:52:31;23.60;53.60
78345;DHT22;67620;51.134;6.548;2023-07-22T09:54:58;23.60;53.60
78345;DHT22;67620;51.134;6.548;2023-07-22T09:57:24;23.50;53.60
78345;DHT22;67620;51.134;6.548;2023-07-22T09:59:49;23.50;53.60
78345;DHT22;67620;51.134;6.548;2023-07-22T10:02:16;23.50;53.60
78345;DHT22;67620;51.134;6.548;2023-07-22T10:04:42;23.50;53.60
78345;DHT22;67620;51.134;6.548;2023-07-22T10:07:08;23.50;53.60
78345;DHT22;67620;51.134;6.548;2023-07-22T10:09:35;23.50;53.60
78345;DHT22;67620;51.134;6.548;2023-07-22T10:12:02;23.50;53.60
78345;DHT22;67620;51.134;6.548;2023-07-22T10:14:28;23.50;53.60
78345;DHT22;67620;51.134;6.548;2023-07-22T10:16:54;23.50;53.60
78345;DHT22;67620;51.134;6.548;2023-07-22T10:19:20;23.50;53.70
78345;DHT22;67620;51.134;6.548;2023-07-22T10:21:46;23.50;53.60
78345;DHT22;67620;51.134;6.548;2023-07-22T10:24:12;23.50;53.60
78345;DHT22;67620;51.134;6.548;2023-07-22T10:26:38;23.50;53.60
78345;DHT22;67620;51.134;6.548;2023-07-22T10:29:05;23.50;53.70
78345;DHT22;67620;51.134;6.548;2023-07-22T10:31:31;23.50;53.60
78345;DHT22;67620;51.134;6.548;2023-07-22T10:33:56;23.50;53.60
78345;DHT22;67620;51.134;6.548;2023-07-22T10:36:22;23.50;53.70
78345;DHT22;67620;51.134;6.548;2023-07-22T10:38:57;23.50;53.60
78345;DHT22;67620;51.134;6.548;2023-07-22T10:41:23;23.50;53.70
78345;DHT22;67620;51.134;6.548;2023-07-22T10:43:56;23.60;53.70
78345;DHT22;67620;51.134;6.548;2023-07-22T10:46:35;23.50;53.60
78345;DHT22;67620;51.134;6.548;2023-07-22T10:49:09;23.50;53.70
78345;DHT22;67620;51.134;6.548;2023-07-22T10:51:36;23.50;53.60
78345;DHT22;67620;51.134;6.548;2023-07-22T10:54:01;23.50;53.60
78345;DHT22;67620;51.134;6.548;2023-07-22T10:56:27;23.60;53.60
78345;DHT22;67620;51.134;6.548;2023-07-22T11:11:53;23.60;53.60
78345;DHT22;67620;51.134;6.548;2023-07-22T11:14:22;23.60;53.60
78345;DHT22;67620;51.134;6.548;2023-07-22T11:16:48;23.60;53.60
78345;DHT22;67620;51.134;6.548;2023-07-22T11:19:14;23.60;53.60
78345;DHT22;67620;51.134;6.548;2023-07-22T11:21:40;23.50;53.60
78345;DHT22;67620;51.134;6.548;2023-07-22T11:24:06;23.60;53.60
78345;DHT22;67620;51.134;6.548;2023-07-22T11:26:32;23.50;53.70
78345;DHT22;67620;51.134;6.548;2023-07-22T11:28:59;23.60;53.60
78345;DHT22;67620;51.134;6.548;2023-07-22T11:31:34;23.60;53.60
78345;DHT22;67620;51.134;6.548;2023-07-22T11:34:02;23.50;53.60
78345;DHT22;67620;51.134;6.548;2023-07-22T11:36:27;23.50;53.70
78345;DHT22;67620;51.134;6.548;2023-07-22T11:38:53;23.50;53.60
78345;DHT22;67620;51.134;6.548;2023-07-22T11:41:20;23.50;53.70
78345;DHT22;67620;51.134;6.548;2023-07-22T11:43:45;23.50;53.70
78345;DHT22;67620;51.134;6.548;2023-07-22T11:46:11;23.60;53.60
78345;DHT22;67620;51.134;6.548;2023-07-22T11:48:36;23.50;53.60
78345;DHT22;67620;51.134;6.548;2023-07-22T11:51:02;23.50;53.50
78345;DHT22;67620;51.134;6.548;2023-07-22T11:53:27;23.60;53.40
78345;DHT22;67620;51.134;6.548;2023-07-22T11:55:56;23.60;53.30
78345;DHT22;67620;51.134;6.548;2023-07-22T11:58:24;23.60;53.30
78345;DHT22;67620;51.134;6.548;2023-07-22T12:01:01;23.60;53.40
78345;DHT22;67620;51.134;6.548;2023-07-22T12:03:30;23.60;53.30
78345;DHT22;67620;51.134;6.548;2023-07-22T12:05:56;23.60;53.30
78345;DHT22;67620;51.134;6.548;2023-07-22T12:08:25;23.60;53.40
78345;DHT22;67620;51.134;6.548;2023-07-22T12:11:00;23.60;53.40
78345;DHT22;67620;51.134;6.548;2023-07-22T12:13:25;23.60;53.40
78345;DHT22;67620;51.134;6.548;2023-07-22T12:16:00;23.60;53.40
78345;DHT22;67620;51.134;6.548;2023-07-22T12:18:26;23.60;53.40
78345;DHT22;67620;51.134;6.548;2023-07-22T12:20:51;23.60;53.30
78345;DHT22;67620;51.134;6.548;2023-07-22T12:23:17;23.60;53.20
78345;DHT22;67620;51.134;6.548;2023-07-22T12:25:43;23.60;53.20
78345;DHT22;67620;51.134;6.548;2023-07-22T12:28:09;23.60;53.20
78345;DHT22;67620;51.134;6.548;2023-07-22T12:30:36;23.60;53.20
78345;DHT22;67620;51.134;6.548;2023-07-22T12:33:02;23.60;53.30
78345;DHT22;67620;51.134;6.548;2023-07-22T12:35:27;23.60;53.30
78345;DHT22;67620;51.134;6.548;2023-07-22T12:37:53;23.60;53.30
78345;DHT22;67620;51.134;6.548;2023-07-22T12:40:18;23.60;53.30
78345;DHT22;67620;51.134;6.548;2023-07-22T12:42:44;23.60;53.10
78345;DHT22;67620;51.134;6.548;2023-07-22T12:45:09;23.60;53.10
78345;DHT22;67620;51.134;6.548;2023-07-22T12:47:35;23.60;53.20
78345;DHT22;67620;51.134;6.548;2023-07-22T12:50:00;23.60;53.10
78345;DHT22;67620;51.134;6.548;2023-07-22T12:52:26;23.60;53.20
78345;DHT22;67620;51.134;6.548;2023-07-22T12:54:51;23.60;53.10
78345;DHT22;67620;51.134;6.548;2023-07-22T12:57:16;23.60;53.20
78345;DHT22;67620;51.134;6.548;2023-07-22T12:59:42;23.60;53.20
78345;DHT22;67620;51.134;6.548;2023-07-22T13:02:07;23.60;53.20
78345;DHT22;67620;51.134;6.548;2023-07-22T13:04:33;23.60;53.20
78345;DHT22;67620;51.134;6.548;2023-07-22T13:06:58;23.60;53.10
78345;DHT22;67620;51.134;6.548;2023-07-22T13:09:23;23.60;53.20
78345;DHT22;67620;51.134;6.548;2023-07-22T13:11:49;23.60;53.10
78345;DHT22;67620;51.134;6.548;2023-07-22T13:14:14;23.60;53.20
78345;DHT22;67620;51.134;6.548;2023-07-22T13:16:40;23.60;53.10
78345;DHT22;67620;51.134;6.548;2023-07-22T13:19:05;23.60;53.20
78345;DHT22;67620;51.134;6.548;2023-07-22T13:21:31;23.60;53.20
78345;DHT22;67620;51.134;6.548;2023-07-22T13:23:56;23.60;53.20
78345;DHT22;67620;51.134;6.548;2023-07-22T13:26:22;23.60;53.20
78345;DHT22;67620;51.134;6.548;2023-07-22T13:28:47;23.60;53.20
78345;DHT22;67620;51.134;6.548;2023-07-22T13:31:12;23.60;53.20
78345;DHT22;67620;51.134;6.548;2023-07-22T13:33:38;23.60;53.20
78345;DHT22;67620;51.134;6.548;2023-07-22T13:36:03;23.60;53.20
78345;DHT22;67620;51.134;6.548;2023-07-22T13:38:29;23.60;53.20
78345;DHT22;67620;51.134;6.548;2023-07-22T13:40:54;23.60;53.20
78345;DHT22;67620;51.134;6.548;2023-07-22T13:43:20;23.60;53.20
78345;DHT22;67620;51.134;6.548;2023-07-22T13:45:45;23.60;53.20
78345;DHT22;67620;51.134;6.548;2023-07-22T13:48:11;23.60;53.20
78345;DHT22;67620;51.134;6.548;2023-07-22T13:50:37;23.60;53.10
78345;DHT22;67620;51.134;6.548;2023-07-22T13:53:02;23.60;53.20
78345;DHT22;67620;51.134;6.548;2023-07-22T13:55:28;23.60;53.20
78345;DHT22;67620;51.134;6.548;2023-07-22T13:57:54;23.60;53.20
78345;DHT22;67620;51.134;6.548;2023-07-22T14:00:19;23.60;53.10
78345;DHT22;67620;51.134;6.548;2023-07-22T14:02:44;23.60;53.10
78345;DHT22;67620;51.134;6.548;2023-07-22T14:05:10;23.60;53.10
78345;DHT22;67620;51.134;6.548;2023-07-22T14:07:35;23.60;53.10
78345;DHT22;67620;51.134;6.548;2023-07-22T14:10:02;23.60;53.10
78345;DHT22;67620;51.134;6.548;2023-07-22T14:12:29;23.70;53.10
78345;DHT22;67620;51.134;6.548;2023-07-22T14:14:54;23.70;53.10
78345;DHT22;67620;51.134;6.548;2023-07-22T14:17:20;23.60;53.10
78345;DHT22;67620;51.134;6.548;2023-07-22T14:19:45;23.70;53.10
78345;DHT22;67620;51.134;6.548;2023-07-22T14:22:11;23.70;53.10
78345;DHT22;67620;51.134;6.548;2023-07-22T14:24:36;23.70;53.10
78345;DHT22;67620;51.134;6.548;2023-07-22T14:27:02;23.70;53.10
78345;DHT22;67620;51.134;6.548;2023-07-22T14:29:28;23.70;53.10
78345;DHT22;67620;51.134;6.548;2023-07-22T14:31:55;23.70;53.10
78345;DHT22;67620;51.134;6.548;2023-07-22T14:34:21;23.70;53.10
78345;DHT22;67620;51.134;6.548;2023-07-22T14:36:46;23.70;53.10
78345;DHT22;67620;51.134;6.548;2023-07-22T14:39:12;23.70;53.10
78345;DHT22;67620;51.134;6.548;2023-07-22T14:41:37;23.70;53.10
78345;DHT22;67620;51.134;6.548;2023-07-22T14:44:02;23.70;53.10
78345;DHT22;67620;51.134;6.548;2023-07-22T14:46:28;23.70;53.10
78345;DHT22;67620;51.134;6.548;2023-07-22T14:48:54;23.70;53.10
78345;DHT22;67620;51.134;6.548;2023-07-22T14:51:19;23.70;53.10
78345;DHT22;67620;51.134;6.548;2023-07-22T14:53:45;23.70;53.10
78345;DHT22;67620;51.134;6.548;2023-07-22T14:56:11;23.70;53.10
78345;DHT22;67620;51.134;6.548;2023-07-22T14:58:36;23.70;53.10
78345;DHT22;67620;51.134;6.548;2023-07-22T15:01:02;23.70;53.00
78345;DHT22;67620;51.134;6.548;2023-07-22T15:03:27;23.70;53.10
78345;DHT22;67620;51.134;6.548;2023-07-22T15:05:53;23.70;53.10
78345;DHT22;67620;51.134;6.548;2023-07-22T15:08:18;23.70;53.10
78345;DHT22;67620;51.134;6.548;2023-07-22T15:10:44;23.70;53.10
78345;DHT22;67620;51.134;6.548;2023-07-22T15:13:09;23.70;53.10
78345;DHT22;67620;51.134;6.548;2023-07-22T15:15:34;23.70;53.10
78345;DHT22;67620;51.134;6.548;2023-07-22T15:18:00;23.70;53.10
78345;DHT22;67620;51.134;6.548;2023-07-22T15:20:25;23.70;53.10
78345;DHT22;67620;51.134;6.548;2023-07-22T15:22:52;23.70;53.10
78345;DHT22;67620;51.134;6.548;2023-07-22T15:25:17;23.70;53.10
78345;DHT22;67620;51.134;6.548;2023-07-22T15:27:43;23.70;53.10
78345;DHT22;67620;51.134;6.548;2023-07-22T15:30:08;23.80;53.10
78345;DHT22;67620;51.134;6.548;2023-07-22T15:32:35;23.70;53.10
78345;DHT22;67620;51.134;6.548;2023-07-22T15:35:00;23.70;53.10
78345;DHT22;67620;51.134;6.548;2023-07-22T15:37:26;23.70;53.10
78345;DHT22;67620;51.134;6.548;2023-07-22T15:39:51;23.70;53.10
78345;DHT22;67620;51.134;6.548;2023-07-22T15:42:16;23.70;53.10